createdAt,value
2023-04-13T00:02:27.060Z,98586.70
2023-04-13T00:05:01.009Z,98581.43
2023-04-13T00:07:34.542Z,98575.28
2023-04-13T00:10:10.299Z,98580.96
2023-04-13T00:12:47.513Z,98577.84
2023-04-13T00:15:21.527Z,98569.57
2023-04-13T00:17:56.192Z,98570.85
2023-04-13T00:20:29.944Z,98566.92
2023-04-13T00:23:02.913Z,98569.91
2023-04-13T00:25:36.351Z,98564.11
2023-04-13T00:28:09.575Z,98564.83
2023-04-13T00:30:42.654Z,98569.53
2023-04-13T00:33:16.261Z,98567.25
2023-04-13T00:35:49.585Z,98564.57
2023-04-13T00:38:24.425Z,98560.20
2023-04-13T00:40:59.173Z,98563.73
2023-04-13T00:43:32.531Z,98555.91
2023-04-13T00:46:05.975Z,98551.56
2023-04-13T00:48:39.598Z,98544.52
2023-04-13T00:51:14.021Z,98548.38
2023-04-13T00:53:47.520Z,98546.03
2023-04-13T00:56:23.335Z,98549.83
2023-04-13T00:58:58.105Z,98551.52
2023-04-13T01:01:31.608Z,98553.92
2023-04-13T01:04:05.855Z,98556.05
2023-04-13T01:06:44.839Z,98554.66
2023-04-13T01:09:25.263Z,98554.53
2023-04-13T01:12:15.178Z,98561.80
2023-04-13T01:14:56.999Z,98568.28
2023-04-13T01:17:32.604Z,98573.44
2023-04-13T01:20:16.110Z,98579.41
2023-04-13T01:23:01.442Z,98579.66
2023-04-13T01:25:45.104Z,98583.44
2023-04-13T01:28:20.540Z,98579.75
2023-04-13T01:30:57.637Z,98581.23
2023-04-13T01:33:30.876Z,98577.55
2023-04-13T01:36:04.373Z,98572.75
2023-04-13T01:38:38.649Z,98567.52
2023-04-13T01:41:13.273Z,98567.09
2023-04-13T01:43:48.711Z,98567.09
2023-04-13T01:46:26.249Z,98562.77
2023-04-13T01:49:02.502Z,98564.87
2023-04-13T01:51:45.680Z,98559.98
2023-04-13T01:54:23.906Z,98561.26
2023-04-13T01:56:59.297Z,98567.37
2023-04-13T01:59:33.520Z,98562.02
2023-04-13T02:02:07.246Z,98560.63
2023-04-13T02:04:41.291Z,98563.64
2023-04-13T02:07:16.635Z,98559.67
2023-04-13T02:09:52.116Z,98552.63
2023-04-13T02:12:25.984Z,98552.11
2023-04-13T02:14:59.891Z,98555.44
2023-04-13T02:17:33.977Z,98552.30
2023-04-13T02:20:09.920Z,98551.03
2023-04-13T02:22:44.254Z,98543.15
2023-04-13T02:25:17.784Z,98556.18
2023-04-13T02:27:51.726Z,98560.55
2023-04-13T02:30:25.075Z,98559.20
2023-04-13T02:32:57.994Z,98558.23
2023-04-13T02:35:31.186Z,98559.81
2023-04-13T02:38:04.269Z,98555.30
2023-04-13T02:40:39.032Z,98555.73
2023-04-13T02:43:13.193Z,98555.73
2023-04-13T02:45:46.604Z,98551.33
2023-04-13T02:48:22.173Z,98552.20
2023-04-13T02:50:56.541Z,98552.55
2023-04-13T02:53:31.250Z,98549.86
2023-04-13T02:56:07.151Z,98547.59
2023-04-13T02:58:39.586Z,98552.43
2023-04-13T03:01:13.867Z,98559.83
2023-04-13T03:03:48.468Z,98559.23
2023-04-13T03:06:24.297Z,98562.31
2023-04-13T03:08:59.718Z,98565.84
2023-04-13T03:11:36.092Z,98564.50
2023-04-13T03:14:18.002Z,98567.93
2023-04-13T03:16:52.120Z,98571.80
2023-04-13T03:19:28.877Z,98569.55
2023-04-13T03:22:02.480Z,98570.06
2023-04-13T03:24:37.573Z,98570.06
2023-04-13T03:27:12.223Z,98572.68
2023-04-13T03:29:47.491Z,98570.06
2023-04-13T03:32:22.858Z,98569.16
2023-04-13T03:34:57.656Z,98571.20
2023-04-13T03:37:32.583Z,98569.16
2023-04-13T03:40:10.404Z,98564.41
2023-04-13T03:42:45.239Z,98577.91
2023-04-13T03:45:20.615Z,98569.68
2023-04-13T03:47:53.896Z,98572.46
2023-04-13T03:50:28.904Z,98575.25
2023-04-13T03:53:02.573Z,98578.34
2023-04-13T03:55:36.087Z,98581.44
2023-04-13T03:58:14.146Z,98593.72
2023-04-13T04:00:47.718Z,98597.16
2023-04-13T04:03:24.492Z,98599.25
2023-04-13T04:05:59.760Z,98604.05
2023-04-13T04:08:34.099Z,98598.34
2023-04-13T04:11:09.640Z,98598.69
2023-04-13T04:13:42.795Z,98603.83
2023-04-13T04:16:17.457Z,98608.13
2023-04-13T04:18:52.846Z,98605.97
2023-04-13T04:21:27.740Z,98598.59
2023-04-13T04:24:05.827Z,98592.16
2023-04-13T04:26:40.591Z,98589.58
2023-04-13T04:29:14.012Z,98582.17
2023-04-13T04:31:49.344Z,98584.31
2023-04-13T04:34:22.476Z,98581.13
2023-04-13T04:37:02.904Z,98581.04
2023-04-13T04:39:34.506Z,98588.75
2023-04-13T04:42:10.558Z,98588.23
2023-04-13T04:44:45.353Z,98596.02
2023-04-13T04:47:19.888Z,98597.77
2023-04-13T04:50:13.093Z,98595.94
2023-04-13T04:52:47.409Z,98598.12
2023-04-13T04:55:22.178Z,98599.91
2023-04-13T04:57:56.800Z,98601.55
2023-04-13T05:00:31.814Z,98586.70
2023-04-13T05:03:13.567Z,98598.55
2023-04-13T05:05:49.325Z,98606.00
2023-04-13T05:08:24.493Z,98603.34
2023-04-13T05:10:57.547Z,98609.00
2023-04-13T05:13:31.583Z,98613.35
2023-04-13T05:16:08.653Z,98621.19
2023-04-13T05:18:48.964Z,98625.46
2023-04-13T05:21:32.650Z,98625.38
2023-04-13T05:24:08.404Z,98628.98
2023-04-13T05:26:43.669Z,98627.24
2023-04-13T05:29:18.812Z,98619.88
2023-04-13T05:31:52.201Z,98615.48
2023-04-13T05:34:25.728Z,98612.45
2023-04-13T05:37:11.695Z,98604.38
2023-04-13T05:39:46.790Z,98593.75
2023-04-13T05:42:21.129Z,98592.80
2023-04-13T05:44:54.322Z,98607.55
2023-04-13T05:47:27.571Z,98615.81
2023-04-13T05:50:02.134Z,98624.01
2023-04-13T05:52:36.347Z,98621.00
2023-04-13T05:55:10.412Z,98621.44
2023-04-13T05:57:45.545Z,98612.69
2023-04-13T06:00:21.926Z,98618.83
2023-04-13T06:02:58.799Z,98607.55
2023-04-13T06:05:34.708Z,98601.02
2023-04-13T06:08:09.907Z,98596.77
2023-04-13T06:10:45.054Z,98591.49
2023-04-13T06:13:18.660Z,98607.84
2023-04-13T06:15:54.197Z,98614.72
2023-04-13T06:18:28.181Z,98618.62
2023-04-13T06:21:01.978Z,98621.69
2023-04-13T06:23:35.843Z,98622.61
2023-04-13T06:26:10.698Z,98616.08
2023-04-13T06:28:46.026Z,98615.25
2023-04-13T06:31:21.423Z,98634.30
2023-04-13T06:33:55.784Z,98642.15
2023-04-13T06:36:30.815Z,98645.67
2023-04-13T06:39:04.724Z,98636.97
2023-04-13T06:41:38.703Z,98629.13
2023-04-13T06:44:23.318Z,98636.05
2023-04-13T06:47:01.249Z,98643.59
2023-04-13T06:49:36.793Z,98650.13
2023-04-13T06:52:10.372Z,98659.01
2023-04-13T06:54:44.475Z,98665.89
2023-04-13T06:57:19.192Z,98667.87
2023-04-13T06:59:52.231Z,98669.63
2023-04-13T07:02:28.645Z,98674.94
2023-04-13T07:05:02.896Z,98674.11
2023-04-13T07:07:37.017Z,98671.12
2023-04-13T07:10:10.821Z,98670.28
2023-04-13T07:12:43.402Z,98666.80
2023-04-13T07:15:16.769Z,98670.77
2023-04-13T07:17:50.247Z,98665.02
2023-04-13T07:20:24.224Z,98661.14
2023-04-13T07:22:57.368Z,98664.63
2023-04-13T07:25:30.793Z,98666.84
2023-04-13T07:28:08.257Z,98665.98
2023-04-13T07:30:46.426Z,98667.34
2023-04-13T07:33:19.800Z,98672.13
2023-04-13T07:35:55.794Z,98670.24
2023-04-13T07:38:31.190Z,98672.07
2023-04-13T07:41:04.021Z,98675.56
2023-04-13T07:43:38.942Z,98670.81
2023-04-13T07:46:14.123Z,98667.86
2023-04-13T07:48:47.643Z,98660.16
2023-04-13T07:51:23.569Z,98657.63
2023-04-13T07:53:58.008Z,98653.38
2023-04-13T07:56:32.370Z,98658.69
2023-04-13T07:59:05.625Z,98671.23
2023-04-13T08:01:39.567Z,98673.02
2023-04-13T08:04:12.847Z,98664.25
2023-04-13T08:06:47.147Z,98664.30
2023-04-13T08:09:20.412Z,98659.56
2023-04-13T08:11:53.454Z,98655.25
2023-04-13T08:14:27.369Z,98661.44
2023-04-13T08:17:03.971Z,98660.27
2023-04-13T08:19:37.546Z,98645.47
2023-04-13T08:22:12.097Z,98642.55
2023-04-13T08:24:46.229Z,98640.03
2023-04-13T08:27:20.050Z,98645.34
2023-04-13T08:29:58.999Z,98644.55
2023-04-13T08:32:34.633Z,98638.89
2023-04-13T08:35:08.081Z,98641.16
2023-04-13T08:37:42.064Z,98643.59
2023-04-13T08:40:16.011Z,98641.34
2023-04-13T08:42:49.711Z,98634.31
2023-04-13T08:45:23.260Z,98640.41
2023-04-13T08:47:56.551Z,98637.76
2023-04-13T08:50:30.552Z,98638.19
2023-04-13T08:53:05.690Z,98637.72
2023-04-13T08:55:46.181Z,98641.63
2023-04-13T08:58:21.274Z,98645.06
2023-04-13T09:00:56.852Z,98654.13
2023-04-13T09:03:34.225Z,98648.90
2023-04-13T09:06:10.577Z,98654.08
2023-04-13T09:08:46.558Z,98657.43
2023-04-13T09:11:21.695Z,98652.94
2023-04-13T09:13:54.820Z,98651.68
2023-04-13T09:16:28.334Z,98650.85
2023-04-13T09:19:04.993Z,98656.51
2023-04-13T09:21:45.211Z,98657.81
2023-04-13T09:24:19.274Z,98660.38
2023-04-13T09:26:53.735Z,98666.78
2023-04-13T09:29:28.599Z,98668.00
2023-04-13T09:32:01.595Z,98677.67
2023-04-13T09:34:34.774Z,98676.89
2023-04-13T09:37:15.371Z,98670.36
2023-04-13T09:39:48.386Z,98666.09
2023-04-13T09:42:21.429Z,98661.83
2023-04-13T09:44:59.192Z,98663.17
2023-04-13T09:47:42.849Z,98659.70
2023-04-13T09:50:22.747Z,98660.97
2023-04-13T09:53:06.338Z,98664.92
2023-04-13T09:55:41.405Z,98661.05
2023-04-13T09:58:20.589Z,98663.76
2023-04-13T10:00:55.425Z,98655.00
2023-04-13T10:03:29.417Z,98665.41
2023-04-13T10:06:02.513Z,98671.02
2023-04-13T10:08:42.664Z,98660.47
2023-04-13T10:11:17.560Z,98669.23
2023-04-13T10:14:01.239Z,98669.71
2023-04-13T10:16:54.371Z,98679.25
2023-04-13T10:19:32.060Z,98675.34
2023-04-13T10:22:09.031Z,98679.34
2023-04-13T10:24:42.191Z,98682.05
2023-04-13T10:27:19.408Z,98685.84
2023-04-13T10:29:52.612Z,98699.67
2023-04-13T10:32:28.178Z,98685.60
2023-04-13T10:35:05.860Z,98677.77
2023-04-13T10:37:40.884Z,98689.08
2023-04-13T10:40:14.881Z,98687.98
2023-04-13T10:45:30.799Z,98685.72
2023-04-13T10:48:04.260Z,98682.23
2023-04-13T10:50:39.145Z,98688.81
2023-04-13T10:53:11.805Z,98686.67
2023-04-13T10:55:45.090Z,98677.53
2023-04-13T10:58:18.820Z,98679.71
2023-04-13T11:00:52.678Z,98676.27
2023-04-13T11:03:30.990Z,98681.94
2023-04-13T11:06:04.229Z,98684.11
2023-04-13T11:08:40.036Z,98688.98
2023-04-13T11:11:15.271Z,98697.36
2023-04-13T11:13:48.804Z,98696.15
2023-04-13T11:16:22.438Z,98690.83
2023-04-13T11:19:04.125Z,98688.27
2023-04-13T11:21:37.668Z,98688.45
2023-04-13T11:24:11.879Z,98684.58
2023-04-13T11:26:45.335Z,98686.84
2023-04-13T11:29:23.184Z,98696.47
2023-04-13T11:31:56.821Z,98691.72
2023-04-13T11:34:30.188Z,98694.04
2023-04-13T11:37:05.890Z,98691.52
2023-04-13T11:39:42.198Z,98681.58
2023-04-13T11:42:15.898Z,98688.70
2023-04-13T11:44:49.474Z,98693.19
2023-04-13T11:47:22.980Z,98697.06
2023-04-13T11:49:56.584Z,98698.80
2023-04-13T11:52:29.895Z,98697.84
2023-04-13T11:55:18.936Z,98691.61
2023-04-13T11:57:41.786Z,98692.83
2023-04-13T12:00:22.166Z,98698.88
2023-04-13T12:03:03.322Z,98699.70
2023-04-13T12:05:36.411Z,98700.05
2023-04-13T12:08:11.062Z,98705.28
2023-04-13T12:10:58.598Z,98705.33
2023-04-13T12:13:33.254Z,98706.67
2023-04-13T12:16:06.114Z,98701.55
2023-04-13T12:18:36.691Z,98703.75
2023-04-13T12:21:05.726Z,98702.66
2023-04-13T12:23:39.743Z,98699.74
2023-04-13T12:26:41.675Z,98708.08
2023-04-13T12:28:48.851Z,98715.88
2023-04-13T12:31:23.420Z,98714.16
2023-04-13T12:33:56.970Z,98720.70
2023-04-13T12:36:31.834Z,98719.44
2023-04-13T12:39:07.070Z,98718.96
2023-04-13T12:41:40.274Z,98708.55
2023-04-13T12:44:14.947Z,98713.87
2023-04-13T12:46:49.380Z,98721.67
2023-04-13T12:49:22.931Z,98711.59
2023-04-13T12:51:56.316Z,98718.53
2023-04-13T12:54:31.157Z,98708.46
2023-04-13T12:57:04.814Z,98720.70
2023-04-13T12:59:38.346Z,98718.13
2023-04-13T13:02:11.459Z,98712.91
2023-04-13T13:04:45.210Z,98711.95
2023-04-13T13:07:19.559Z,98718.44
2023-04-13T13:09:54.311Z,98712.81
2023-04-13T13:12:29.889Z,98719.80
2023-04-13T13:15:04.640Z,98714.42
2023-04-13T13:17:42.028Z,98717.56
2023-04-13T13:20:15.847Z,98714.42
2023-04-13T13:22:49.636Z,98721.88
2023-04-13T13:25:22.914Z,98727.19
2023-04-13T13:30:32.392Z,98724.09
2023-04-13T13:33:07.062Z,98724.82
2023-04-13T13:35:41.045Z,98725.55
2023-04-13T13:38:14.308Z,98721.06
2023-04-13T13:40:49.338Z,98729.38
2023-04-13T13:43:22.506Z,98727.55
2023-04-13T13:45:56.409Z,98729.29
2023-04-13T13:48:29.656Z,98734.13
2023-04-13T13:51:06.275Z,98728.95
2023-04-13T13:53:40.821Z,98733.83
2023-04-13T13:56:13.882Z,98736.48
2023-04-13T13:58:47.631Z,98733.16
2023-04-13T14:01:21.381Z,98731.40
2023-04-13T14:03:55.715Z,98732.19
2023-04-13T14:06:28.727Z,98733.53
2023-04-13T14:09:02.493Z,98736.15
2023-04-13T14:11:36.449Z,98735.19
2023-04-13T14:14:20.480Z,98737.80
2023-04-13T14:16:44.328Z,98734.75
2023-04-13T14:19:18.690Z,98732.66
2023-04-13T14:21:51.812Z,98735.63
2023-04-13T14:24:26.461Z,98736.98
2023-04-13T14:26:59.981Z,98734.84
2023-04-13T14:29:33.417Z,98737.95
2023-04-13T14:32:07.283Z,98739.24
2023-04-13T14:34:41.712Z,98735.77
2023-04-13T14:37:17.554Z,98736.69
2023-04-13T14:39:56.579Z,98738.81
2023-04-13T14:42:31.022Z,98738.86
2023-04-13T14:45:05.496Z,98738.86
2023-04-13T14:47:39.168Z,98736.53
2023-04-13T14:50:12.963Z,98739.10
2023-04-13T14:52:47.967Z,98736.01
2023-04-13T14:55:22.050Z,98737.84
2023-04-13T14:57:56.850Z,98733.97
2023-04-13T15:00:42.231Z,98730.40
2023-04-13T15:03:16.589Z,98733.39
2023-04-13T15:05:50.588Z,98734.61
2023-04-13T15:08:23.875Z,98735.04
2023-04-13T15:10:56.961Z,98734.13
2023-04-13T15:13:30.130Z,98734.99
2023-04-13T15:16:03.347Z,98738.05
2023-04-13T15:18:36.482Z,98736.44
2023-04-13T15:21:09.450Z,98738.58
2023-04-13T15:23:42.662Z,98737.70
2023-04-13T15:26:20.224Z,98737.27
2023-04-13T15:28:53.868Z,98735.91
2023-04-13T15:31:27.339Z,98737.08
2023-04-13T15:34:00.441Z,98745.70
2023-04-13T15:36:35.044Z,98747.05
2023-04-13T15:39:08.657Z,98748.36
2023-04-13T15:41:41.818Z,98745.40
2023-04-13T15:44:14.829Z,98741.09
2023-04-13T15:46:48.269Z,98744.14
2023-04-13T15:49:21.262Z,98737.13
2023-04-13T15:51:54.327Z,98739.27
2023-04-13T15:54:27.506Z,98747.05
2023-04-13T15:57:00.716Z,98742.26
2023-04-13T15:59:35.017Z,98742.73
2023-04-13T16:02:09.110Z,98740.56
2023-04-13T16:04:42.509Z,98744.05
2023-04-13T16:07:16.507Z,98745.34
2023-04-13T16:09:56.591Z,98737.08
2023-04-13T16:12:33.814Z,98733.11
2023-04-13T16:15:07.983Z,98735.30
2023-04-13T16:17:44.260Z,98735.73
2023-04-13T16:20:21.786Z,98743.08
2023-04-13T16:22:56.317Z,98750.97
2023-04-13T16:25:31.112Z,98748.41
2023-04-13T16:28:03.873Z,98748.94
2023-04-13T16:30:37.855Z,98755.03
2023-04-13T16:33:11.149Z,98753.73
2023-04-13T16:35:44.650Z,98748.89
2023-04-13T16:38:17.745Z,98745.40
2023-04-13T16:40:51.172Z,98752.33
2023-04-13T16:43:25.161Z,98758.46
2023-04-13T16:45:58.057Z,98759.29
2023-04-13T16:48:31.659Z,98760.64
2023-04-13T16:51:05.115Z,98758.95
2023-04-13T16:53:40.135Z,98760.73
2023-04-13T16:56:15.947Z,98755.08
2023-04-13T16:58:50.270Z,98756.44
2023-04-13T17:01:22.645Z,98759.91
2023-04-13T17:03:55.851Z,98759.05
2023-04-13T17:06:29.160Z,98769.02
2023-04-13T17:09:02.239Z,98773.37
2023-04-13T17:11:36.042Z,98765.09
2023-04-13T17:14:09.909Z,98764.56
2023-04-13T17:16:43.202Z,98775.84
2023-04-13T17:19:16.353Z,98771.88
2023-04-13T17:21:52.296Z,98773.56
2023-04-13T17:24:25.355Z,98770.08
2023-04-13T17:26:58.492Z,98775.75
2023-04-13T17:29:33.235Z,98770.17
2023-04-13T17:32:07.651Z,98771.53
2023-04-13T17:34:41.101Z,98771.14
2023-04-13T17:37:14.335Z,98771.63
2023-04-13T17:39:49.560Z,98770.27
2023-04-13T17:42:23.230Z,98767.61
2023-04-13T17:44:56.991Z,98765.44
2023-04-13T17:47:30.822Z,98770.22
2023-04-13T17:50:04.527Z,98761.42
2023-04-13T17:52:37.806Z,98761.42
2023-04-13T17:55:13.846Z,98771.58
2023-04-13T17:57:47.602Z,98763.73
2023-04-13T18:00:22.080Z,98762.00
2023-04-13T18:02:56.285Z,98765.09
2023-04-13T18:05:29.254Z,98765.58
2023-04-13T18:08:02.659Z,98758.56
2023-04-13T18:10:37.234Z,98764.13
2023-04-13T18:13:11.962Z,98761.52
2023-04-13T18:15:48.191Z,98762.78
2023-04-13T18:18:22.900Z,98757.55
2023-04-13T18:20:56.828Z,98757.11
2023-04-13T18:23:29.670Z,98751.50
2023-04-13T18:26:04.051Z,98757.25
2023-04-13T18:28:37.808Z,98745.89
2023-04-13T18:31:11.763Z,98755.52
2023-04-13T18:33:45.395Z,98752.95
2023-04-13T18:36:19.607Z,98744.19
2023-04-13T18:38:54.190Z,98747.67
2023-04-13T18:41:27.298Z,98741.88
2023-04-13T18:44:01.436Z,98745.80
2023-04-13T18:46:35.448Z,98748.41
2023-04-13T18:49:08.793Z,98737.91
2023-04-13T18:51:43.643Z,98734.47
2023-04-13T18:54:17.828Z,98733.98
2023-04-13T18:56:51.102Z,98735.15
2023-04-13T18:59:24.222Z,98733.84
2023-04-13T19:01:57.453Z,98735.58
2023-04-13T19:04:30.514Z,98729.53
2023-04-13T19:07:05.588Z,98726.48
2023-04-13T19:09:40.104Z,98726.53
2023-04-13T19:12:13.018Z,98726.58
2023-04-13T19:14:49.187Z,98736.11
2023-04-13T19:17:24.467Z,98733.84
2023-04-13T19:19:58.425Z,98728.67
2023-04-13T19:22:31.587Z,98731.76
2023-04-13T19:25:07.423Z,98726.63
2023-04-13T19:27:41.476Z,98724.89
2023-04-13T19:30:16.390Z,98717.14
2023-04-13T19:32:51.488Z,98721.97
2023-04-13T19:35:26.494Z,98720.14
2023-04-13T19:37:59.450Z,98714.91
2023-04-13T19:40:33.038Z,98720.63
2023-04-13T19:43:06.755Z,98719.71
2023-04-13T19:45:41.088Z,98723.19
2023-04-13T19:48:13.887Z,98717.00
2023-04-13T19:50:47.057Z,98718.74
2023-04-13T19:53:20.037Z,98718.74
2023-04-13T19:55:53.426Z,98721.26
2023-04-13T19:58:29.138Z,98719.95
2023-04-13T20:01:02.517Z,98716.08
2023-04-13T20:03:37.746Z,98712.64
2023-04-13T20:06:12.526Z,98700.93
2023-04-13T20:08:46.537Z,98695.22
2023-04-13T20:11:21.094Z,98693.92
2023-04-13T20:13:53.538Z,98698.63
2023-04-13T20:16:27.325Z,98696.44
2023-04-13T20:19:00.437Z,98702.05
2023-04-13T20:21:34.661Z,98699.88
2023-04-13T20:24:08.182Z,98696.48
2023-04-13T20:26:42.565Z,98695.13
2023-04-13T20:29:20.502Z,98694.66
2023-04-13T20:31:53.568Z,98693.70
2023-04-13T20:34:27.688Z,98694.08
2023-04-13T20:37:00.667Z,98700.14
2023-04-13T20:39:37.153Z,98690.55
2023-04-13T20:42:12.054Z,98690.55
2023-04-13T20:44:46.240Z,98686.67
2023-04-13T20:47:21.714Z,98693.55
2023-04-13T20:49:56.254Z,98692.63
2023-04-13T20:52:32.925Z,98696.07
2023-04-13T20:55:06.996Z,98694.72
2023-04-13T20:57:42.453Z,98685.58
2023-04-13T21:00:18.352Z,98680.78
2023-04-13T21:02:53.439Z,98666.80
2023-04-13T21:05:26.857Z,98662.88
2023-04-13T21:08:00.013Z,98663.38
2023-04-13T21:10:34.001Z,98671.16
2023-04-13T21:13:09.627Z,98669.03
2023-04-13T21:15:42.730Z,98670.33
2023-04-13T21:18:15.630Z,98669.08
2023-04-13T21:20:49.353Z,98670.81
2023-04-13T21:23:22.007Z,98668.59
2023-04-13T21:25:55.420Z,98669.91
2023-04-13T21:28:29.204Z,98672.85
2023-04-13T21:31:02.257Z,98666.66
2023-04-13T21:33:36.012Z,98671.45
2023-04-13T21:38:48.257Z,98670.88
2023-04-13T21:41:22.687Z,98671.83
2023-04-13T21:43:55.585Z,98674.55
2023-04-13T21:46:28.985Z,98680.26
2023-04-13T21:49:02.285Z,98673.42
2023-04-13T21:51:35.620Z,98671.83
2023-04-13T21:54:08.933Z,98675.92
2023-04-13T21:56:42.015Z,98676.02
2023-04-13T21:59:14.984Z,98668.66
2023-04-13T22:01:48.595Z,98663.96
2023-04-13T22:04:22.407Z,98655.69
2023-04-13T22:06:56.169Z,98658.26
2023-04-13T22:09:29.099Z,98657.63
2023-04-13T22:12:02.314Z,98654.89
2023-04-13T22:14:35.278Z,98655.77
2023-04-13T22:17:09.907Z,98649.28
2023-04-13T22:19:43.692Z,98644.14
2023-04-13T22:22:16.843Z,98647.53
2023-04-13T22:24:53.782Z,98642.31
2023-04-13T22:27:27.567Z,98645.36
2023-04-13T22:30:01.200Z,98651.84
2023-04-13T22:32:34.770Z,98646.44
2023-04-13T22:35:08.665Z,98646.88
2023-04-13T22:37:41.877Z,98652.62
2023-04-13T22:40:15.758Z,98659.64
2023-04-13T22:42:48.940Z,98660.50
2023-04-13T22:45:23.328Z,98652.05
2023-04-13T22:47:57.715Z,98654.09
2023-04-13T22:50:31.148Z,98659.31
2023-04-13T22:53:05.784Z,98658.92
2023-04-13T22:55:39.382Z,98659.79
2023-04-13T22:58:12.899Z,98652.64
2023-04-13T23:00:46.437Z,98653.95
2023-04-13T23:03:21.614Z,98655.69
2023-04-13T23:05:56.047Z,98647.90
2023-04-13T23:08:29.580Z,98648.33
2023-04-13T23:11:12.230Z,98646.05
2023-04-13T23:13:46.559Z,98644.75
2023-04-13T23:16:20.161Z,98650.32
2023-04-13T23:18:53.923Z,98652.93
2023-04-13T23:21:28.063Z,98649.06
2023-04-13T23:24:01.709Z,98645.58
2023-04-13T23:26:34.936Z,98651.63
2023-04-13T23:29:07.955Z,98646.78
2023-04-13T23:31:41.738Z,98651.96
2023-04-13T23:34:15.139Z,98651.81
2023-04-13T23:36:48.114Z,98653.85
2023-04-13T23:39:22.628Z,98654.67
2023-04-13T23:41:55.641Z,98652.45
2023-04-13T23:44:29.101Z,98658.92
2023-04-13T23:47:02.728Z,98657.08
2023-04-13T23:49:35.819Z,98653.95
2023-04-13T23:52:10.258Z,98657.41
2023-04-13T23:54:43.312Z,98659.55
2023-04-13T23:57:16.663Z,98656.11
2023-04-13T23:59:49.899Z,98658.72
